< < Back
Terminal Aerodrome Forecast


Current Version              Previous Versions:   1  2  3  4  5  6  7  8  9  

Terminal Aerodrome Forecast

982
FTUS42 KCAE 270200 AAA
TAFCAE
TAF AMD
KCAE 270243Z 2703/2724 24006KT P6SM SCT070
     FM271400 29012G22KT P6SM SCT050
     FM272300 32005KT P6SM SKC=



Latest METAR

539
SAUS80 KWBC 271700 RRA
MTRCAE
METAR KCAE 271656Z 31017G22KT 10SM FEW050 12/M01 A3013 RMK AO2 PK WND
30030/1559 SLP204 T01171011


USA.gov is the U.S. government's official web portal to all federal, state and local government web resources and services.